EGKK Airport Information

Runway Information
Runway 08L Length 8415 ft width 148 ft
Elevation 195 ft Threshold 1053 ft Heading 78
Runway 26R Length 8415 ft Width 148 ft
Elevation 195 ft Threshold 1366 ft Heading 258
Runway 08R Length 10364 ft width 148 ft
Elevation 196 ft Threshold 1288 ft Heading 78
Runway 26L Length 10364 ft Width 148 ft
Elevation 196 ft Threshold 878 ft Heading 258
Airport Frequencies
Type APP Name APP Frequency 126.825 MHZ
Type ATIS Name ATIS Frequency 136.525 MHZ
Type CLD Name CLNC DEL Frequency 121.95 MHZ
Type GND Name GND Frequency 121.8 MHZ
Type TWR Name TWR Frequency 124.225 MHZ
Airport Navaids
Type NDB Name Gatwick Frequency 338 KHZ
Type NDB Name Gatwick Frequency 365 KHZ
Airport Weather Information & NOTAM
ADDS - METARS form results

(0843 UTC 22 October 2020)
Data provider http://aviationweather.gov/metar/data/
 
METAR text: EGKK 220820Z 22007KT CAVOK 14/11 Q1008
Conditions at: EGKK (LONDON/GATWICK A, GB) observed 0820 UTC 22 October 2020
Temperature: 14.0°C (57°F)
Dewpoint: 11.0°C (52°F) [RH = 82%]
Pressure (altimeter): 29.76 inches Hg (1008.0 mb)
Winds: from the SW (220 degrees) at 8 MPH (7 knots; 3.6 m/s)
Visibility: 6 or more miles (10+ km)
Ceiling: ceiling and visibility are OK
Clouds: unknown
Weather: no significant weather observed at this time

METAR text: EGKK 220750Z 21008KT CAVOK 13/11 Q1008
Conditions at: EGKK (LONDON/GATWICK A, GB) observed 0750 UTC 22 October 2020
Temperature: 13.0°C (55°F)
Dewpoint: 11.0°C (52°F) [RH = 88%]
Pressure (altimeter): 29.76 inches Hg (1008.0 mb)
Winds: from the SSW (210 degrees) at 9 MPH (8 knots; 4.1 m/s)
Visibility: 6 or more miles (10+ km)
Ceiling: ceiling and visibility are OK
Clouds: unknown
Weather: no significant weather observed at this time

Forecast for: COR
Text: TAF COR EGKK 220506Z 2206/2312 22009KT 9999 FEW030
Forecast period: 0600 UTC 22 October 2020 to 1200 UTC 23 October 2020
Forecast type: FROM: standard forecast or significant change
Winds: from the SW (220 degrees) at 10 MPH (9 knots; 4.6 m/s)
Visibility: 6 or more miles (10+ km)
Ceiling: at least 12,000 feet AGL
Clouds: few clouds at 3000 feet AGL
Weather: no significant weather forecast for this period
Text: PROB30
Forecast period: 1800 UTC 22 October 2020 to 1200 UTC 23 October 2020
Forecast type: TEMPORARY: The following changes expected for less than half the time period
Visibility: 2.49 miles (4.01 km)
Ceiling: 1400 feet AGL
Clouds: broken clouds at 1400 feet AGL
Weather: +SHRA  (heavy rain showers)
Text: TEMPO 2218/2312 4000 +SHRA BKN014CB
Forecast period: 2300 UTC 22 October 2020 to 0900 UTC 23 October 2020
Forecast type: TEMPORARY: The following changes expected for less than half the time period
Visibility: missing
Ceiling: 600 feet AGL
Clouds: broken clouds at 600 feet AGL
Weather: BR  (mist)